CYXJ

Fort St John Airport

Fort St.John, British Columbia, Canada
METAR CYXJ 092100Z 10009KT 60SM SCT120 BKN240 M04/M07 A2974 RMK AC4CI3 SLP110
Observed Flight Rules
Dec-9 @ 21:00 UTC (43 minutes ago) Visual Flight Rules
Wind Visibility Clouds
100° at 9 knots 60 miles
  • Scattered at 12,000' AGL
  • Broken at 24,000' AGL
Temperatures Readings
Current -4°C / 25°F
Dewpoint -7°C / 19°F
Humidity 80%
Altimeter 29.74" Hg
Pressure 1011 hPa
Elevation 695
METAR CYXJ 092100Z 10009KT 60SM SCT120 BKN240 M04/M07 A2974 RMK AC4CI3 SLP110
Observed Flight Rules
Dec-9 @ 21:00 UTC
(43 minutes ago)
VFR
Wind Visibility
100° at 9 knots 60 miles
Clouds
  • Scattered at 12,000' AGL
  • Broken at 24,000' AGL
Temperature Dewpoint
-4°C / 25°F -7°C / 19°F
Humidity Altimeter Pressure
80% 29.74" Hg 1011 hPa